Time;durP1;ratioP1;P1;durP2;ratioP2;P2;SDS_P1;SDS_P2;PMS_P1;PMS_P2;Temp;Humidity;BMP_temperature;BMP_pressure;BME280_temperature;BME280_humidity;BME280_pressure;Samples;Min_cycle;Max_cycle;Signal;HPM_P1;HPM_P2
2023/03/30 00:01:24;;;;;;;7.67;2.43;;;;;;;12.20;73.79;95474.03;6221844;23;20531;-87
2023/03/30 00:03:53;;;;;;;7.93;2.23;;;;;;;12.20;73.67;95475.81;6222692;23;20177;-88
2023/03/30 00:06:21;;;;;;;5.63;2.00;;;;;;;12.23;73.62;95476.25;6222437;23;20351;-86
2023/03/30 00:08:48;;;;;;;4.43;2.07;;;;;;;12.21;73.69;95469.66;6222353;23;20170;-87
2023/03/30 00:11:21;;;;;;;6.13;2.10;;;;;;;12.20;73.60;95466.28;6223025;23;20197;-86
2023/03/30 00:13:52;;;;;;;5.00;2.40;;;;;;;12.25;73.61;95470.91;6221957;23;20162;-86
2023/03/30 00:16:20;;;;;;;7.43;2.50;;;;;;;12.22;73.63;95455.78;6221890;23;20180;-88
2023/03/30 00:18:47;;;;;;;4.47;2.10;;;;;;;12.20;73.87;95455.97;6222936;23;20181;-86
2023/03/30 00:21:16;;;;;;;6.60;2.27;;;;;;;12.19;73.81;95453.56;6221825;23;20197;-87
2023/03/30 00:23:45;;;;;;;5.47;2.20;;;;;;;12.19;73.82;95449.22;6222505;23;20185;-87
2023/03/30 00:26:12;;;;;;;7.37;1.97;;;;;;;12.18;73.91;95446.81;6222195;23;20272;-86
2023/03/30 00:28:39;;;;;;;7.10;2.00;;;;;;;12.15;74.45;95449.78;6221821;23;20178;-86
2023/03/30 00:31:09;;;;;;;5.53;1.90;;;;;;;12.16;74.45;95451.38;6222121;23;20280;-87
2023/03/30 00:33:38;;;;;;;9.40;2.67;;;;;;;12.16;74.14;95438.47;6222351;23;20230;-87
2023/03/30 00:36:08;;;;;;;5.10;2.17;;;;;;;12.19;74.24;95432.94;6222688;23;20192;-86
2023/03/30 00:38:35;;;;;;;4.90;1.70;;;;;;;12.15;74.18;95426.53;6222644;23;20177;-87
2023/03/30 00:41:01;;;;;;;6.53;2.37;;;;;;;12.13;74.28;95415.59;6221259;23;20240;-87
2023/03/30 00:43:29;;;;;;;9.97;2.03;;;;;;;12.10;74.32;95417.59;6221151;23;20764;-86
2023/03/30 00:45:56;;;;;;;8.37;2.20;;;;;;;12.15;73.94;95417.03;6221881;23;20244;-87
2023/03/30 00:48:27;;;;;;;8.10;2.10;;;;;;;12.18;73.88;95413.25;6222826;23;20173;-86
2023/03/30 00:50:57;;;;;;;5.77;2.00;;;;;;;12.21;73.35;95410.31;6222823;23;20193;-87
2023/03/30 00:53:30;;;;;;;8.20;2.00;;;;;;;12.18;73.67;95413.25;6222543;23;20660;-86
2023/03/30 00:55:57;;;;;;;5.47;1.80;;;;;;;12.18;73.69;95408.09;6222993;23;20181;-87
2023/03/30 00:58:25;;;;;;;8.07;2.23;;;;;;;12.18;73.57;95411.47;6223191;23;20185;-86
2023/03/30 01:00:52;;;;;;;9.43;2.47;;;;;;;12.18;73.51;95411.47;6220693;23;20197;-88
2023/03/30 01:03:23;;;;;;;5.13;1.70;;;;;;;12.21;73.14;95405.16;6221511;23;20240;-86
2023/03/30 01:05:53;;;;;;;4.87;2.00;;;;;;;12.18;73.43;95402.94;6222306;23;20189;-88
2023/03/30 01:08:22;;;;;;;8.93;1.93;;;;;;;12.20;73.26;95398.38;6222012;23;20185;-86
2023/03/30 01:10:52;;;;;;;5.67;2.10;;;;;;;12.20;73.14;95396.59;6221672;23;20406;-87
2023/03/30 01:13:20;;;;;;;7.10;2.10;;;;;;;12.19;72.97;95391.63;6222064;23;20197;-86
2023/03/30 01:16:01;;;;;;;5.23;1.90;;;;;;;12.20;73.29;95390.66;6220705;23;20887;-85
2023/03/30 01:18:43;;;;;;;7.17;2.17;;;;;;;12.19;73.13;95391.63;6220523;23;20157;-88
2023/03/30 01:21:47;;;;;;;4.43;1.80;;;;;;;12.18;73.06;95396.00;6219916;23;20668;-86
2023/03/30 01:24:52;;;;;;;5.90;1.80;;;;;;;12.18;73.11;95392.63;6220877;23;20165;-87
2023/03/30 01:27:38;;;;;;;6.40;1.90;;;;;;;12.19;72.65;95389.84;6219015;23;20209;-87
2023/03/30 01:30:22;;;;;;;5.70;2.00;;;;;;;12.22;72.39;95379.16;6221119;23;20193;-85
2023/03/30 01:33:11;;;;;;;6.60;2.53;;;;;;;12.23;72.29;95385.91;6220206;23;20168;-87
2023/03/30 01:36:08;;;;;;;4.87;2.00;;;;;;;12.22;72.12;95388.66;6220182;23;20386;-86
2023/03/30 01:39:07;;;;;;;4.50;2.00;;;;;;;12.26;71.58;95384.72;6220652;23;20783;-87
2023/03/30 01:41:37;;;;;;;4.43;1.73;;;;;;;12.23;71.20;95380.75;6220229;23;20206;-87
2023/03/30 01:44:11;;;;;;;4.43;1.83;;;;;;;12.24;71.17;95392.66;6220440;23;20196;-86
2023/03/30 01:46:44;;;;;;;4.63;1.80;;;;;;;12.26;70.65;95389.88;6219476;23;20180;-86
2023/03/30 01:49:17;;;;;;;7.20;2.33;;;;;;;12.23;70.15;95383.31;6220787;23;20218;-87
2023/03/30 01:51:49;;;;;;;7.93;2.37;;;;;;;12.24;69.63;95386.69;6219947;23;20237;-86
2023/03/30 01:54:22;;;;;;;6.30;1.87;;;;;;;12.32;69.60;95387.31;6221411;23;20193;-88
2023/03/30 01:56:53;;;;;;;7.83;2.03;;;;;;;12.35;68.92;95389.53;6219828;23;20189;-86
2023/03/30 01:59:27;;;;;;;7.73;2.20;;;;;;;12.44;68.54;95397.91;6220397;23;20251;-86
2023/03/30 02:02:01;;;;;;;5.27;2.00;;;;;;;12.49;68.06;95398.13;6218407;23;20194;-87
2023/03/30 02:04:30;;;;;;;7.80;1.80;;;;;;;12.55;67.78;95396.56;6220453;23;20161;-87
2023/03/30 02:07:00;;;;;;;7.87;2.20;;;;;;;12.61;67.49;95391.41;6219693;23;20197;-86
2023/03/30 02:09:31;;;;;;;6.93;1.90;;;;;;;12.65;67.25;95391.84;6219909;23;20222;-87
2023/03/30 02:11:59;;;;;;;9.20;1.80;;;;;;;12.68;67.47;95394.84;6218923;23;20695;-87
2023/03/30 02:14:31;;;;;;;7.90;2.03;;;;;;;12.70;67.45;95392.81;6220006;23;20177;-86
2023/03/30 02:17:01;;;;;;;4.20;1.97;;;;;;;12.70;67.20;95389.47;6219477;23;20540;-86
2023/03/30 02:19:29;;;;;;;8.43;1.90;;;;;;;12.70;67.17;95381.72;6219524;23;20184;-86
2023/03/30 02:21:55;;;;;;;6.27;2.00;;;;;;;12.75;67.28;95387.88;6219356;23;20197;-87
2023/03/30 02:24:25;;;;;;;8.10;2.50;;;;;;;12.74;66.91;95388.88;6218838;23;20181;-86
2023/03/30 02:26:54;;;;;;;4.87;2.07;;;;;;;12.78;66.78;95387.50;6219954;23;20204;-86
2023/03/30 02:29:21;;;;;;;7.13;2.07;;;;;;;12.81;67.05;95388.91;6219380;23;20207;-86
2023/03/30 02:31:50;;;;;;;5.27;1.90;;;;;;;12.83;67.04;95399.84;6219546;23;20202;-86
2023/03/30 02:34:30;;;;;;;9.90;2.23;;;;;;;12.86;67.23;95411.56;6215187;23;20177;-86
2023/03/30 02:37:10;;;;;;;5.47;2.33;;;;;;;12.92;66.97;95424.50;6213710;23;20165;-85
2023/03/30 02:39:47;;;;;;;5.20;2.00;;;;;;;12.96;67.51;95435.25;6214694;23;20517;-86
2023/03/30 02:42:34;;;;;;;12.67;2.33;;;;;;;12.99;68.53;95445.19;6220078;23;20181;-87
2023/03/30 02:45:14;;;;;;;7.07;1.83;;;;;;;12.96;68.96;95443.78;6220310;23;20196;-86
2023/03/30 02:47:51;;;;;;;7.50;2.40;;;;;;;12.99;68.91;95442.63;6216655;23;20154;-86
2023/03/30 02:50:23;;;;;;;8.50;2.70;;;;;;;13.03;69.25;95451.59;6213439;23;20200;-86
2023/03/30 02:52:57;;;;;;;5.13;2.67;;;;;;;13.06;70.56;95459.75;6219552;23;20162;-86
2023/03/30 02:55:33;;;;;;;7.13;2.23;;;;;;;13.08;72.36;95459.56;6220120;23;20162;-86
2023/03/30 02:58:06;;;;;;;9.87;2.80;;;;;;;13.08;73.58;95457.75;6218805;23;20789;-87
2023/03/30 03:00:41;;;;;;;14.10;2.67;;;;;;;13.15;74.18;95460.38;6219113;23;20252;-87
2023/03/30 03:03:17;;;;;;;8.57;2.80;;;;;;;13.18;74.06;95462.56;6218005;23;20172;-87
2023/03/30 03:05:44;;;;;;;11.43;2.73;;;;;;;13.24;74.47;95471.34;6214711;23;20178;-86
2023/03/30 03:08:13;;;;;;;10.17;2.83;;;;;;;13.27;74.30;95466.59;6218167;23;20177;-86
2023/03/30 03:10:40;;;;;;;13.73;2.97;;;;;;;13.30;74.66;95471.34;6212450;23;20197;-85
2023/03/30 03:13:08;;;;;;;10.00;2.67;;;;;;;13.30;75.33;95467.97;6217490;23;20204;-87
2023/03/30 03:15:36;;;;;;;6.33;2.77;;;;;;;13.30;74.82;95463.59;6220952;23;20173;-86
2023/03/30 03:18:03;;;;;;;7.53;2.73;;;;;;;13.23;77.41;95447.28;6215948;23;20227;-85
2023/03/30 03:20:29;;;;;;;9.60;2.60;;;;;;;13.21;77.79;95449.25;6220774;23;20247;-86
2023/03/30 03:22:56;;;;;;;9.63;3.10;;;;;;;13.20;78.75;95452.06;6223434;23;20208;-86
2023/03/30 03:25:22;;;;;;;11.70;2.90;;;;;;;13.14;78.44;95448.41;6221875;23;20173;-87
2023/03/30 03:27:49;;;;;;;7.00;2.47;;;;;;;13.17;78.97;95442.88;6222379;23;20184;-86
2023/03/30 03:30:17;;;;;;;12.47;3.40;;;;;;;13.21;78.84;95445.88;6217378;23;20201;-86
2023/03/30 03:32:43;;;;;;;11.27;3.23;;;;;;;13.20;79.46;95437.34;6216991;23;20180;-86
2023/03/30 03:35:10;;;;;;;11.50;3.07;;;;;;;13.22;79.54;95430.19;6219172;23;20170;-86
2023/03/30 03:37:36;;;;;;;14.27;3.57;;;;;;;13.21;80.19;95441.50;6222991;23;20177;-86
2023/03/30 03:40:04;;;;;;;8.67;2.83;;;;;;;13.21;80.24;95445.88;6221997;23;20177;-86
2023/03/30 03:42:31;;;;;;;10.97;2.70;;;;;;;13.25;80.33;95457.44;6221771;23;20189;-86
2023/03/30 03:44:57;;;;;;;9.10;3.07;;;;;;;13.29;80.34;95463.78;6221368;23;20177;-86
2023/03/30 03:47:25;;;;;;;12.23;3.00;;;;;;;13.29;81.77;95476.72;6219912;23;20200;-86
2023/03/30 03:49:51;;;;;;;8.13;3.10;;;;;;;13.25;82.79;95485.88;6221094;23;20177;-88
2023/03/30 03:52:17;;;;;;;10.67;3.40;;;;;;;13.18;86.04;95477.28;6217878;23;20231;-86
2023/03/30 03:54:44;;;;;;;11.57;3.33;;;;;;;13.15;85.85;95478.47;6217992;23;20490;-86
2023/03/30 03:57:10;;;;;;;9.47;3.07;;;;;;;13.12;86.74;95492.56;6218570;23;20197;-86
2023/03/30 03:59:37;;;;;;;10.43;3.10;;;;;;;13.01;92.36;95506.03;6217575;23;20688;-86
2023/03/30 04:02:04;;;;;;;9.00;3.67;;;;;;;12.96;92.33;95507.59;6218134;23;20201;-86
2023/03/30 04:04:32;;;;;;;12.37;3.40;;;;;;;12.95;91.37;95511.19;6219486;23;20197;-86
2023/03/30 04:06:58;;;;;;;9.80;3.27;;;;;;;12.95;91.18;95503.44;6218783;23;20204;-86
2023/03/30 04:09:25;;;;;;;16.93;3.20;;;;;;;12.87;95.59;95503.59;6219054;23;20180;-86
2023/03/30 04:11:51;;;;;;;9.03;2.60;;;;;;;12.88;94.14;95489.69;6218187;23;20355;-86
2023/03/30 04:14:17;;;;;;;7.87;3.40;;;;;;;12.84;95.80;95499.63;6219865;23;20185;-86
2023/03/30 04:16:44;;;;;;;10.47;3.27;;;;;;;12.85;94.20;95492.66;6220271;23;20173;-87
2023/03/30 04:19:11;;;;;;;10.60;3.13;;;;;;;12.83;96.84;95502.38;6219433;23;20184;-86
2023/03/30 04:21:45;;;;;;;11.73;3.10;;;;;;;12.78;98.84;95511.50;6221170;23;20276;-87
2023/03/30 04:24:12;;;;;;;9.57;3.30;;;;;;;12.72;99.80;95512.25;6218922;23;20633;-86
2023/03/30 04:26:40;;;;;;;11.93;3.67;;;;;;;12.72;100.00;95522.59;6218766;23;20204;-87
2023/03/30 04:29:07;;;;;;;9.40;3.43;;;;;;;12.70;100.00;95521.22;6215576;23;20178;-86
2023/03/30 04:31:34;;;;;;;11.83;3.57;;;;;;;12.69;100.00;95527.38;6217848;23;20194;-87
2023/03/30 04:34:03;;;;;;;13.40;3.93;;;;;;;12.61;100.00;95532.69;6218902;23;20239;-86
2023/03/30 04:36:30;;;;;;;10.60;2.93;;;;;;;12.55;100.00;95538.59;6218633;23;20261;-86
2023/03/30 04:38:58;;;;;;;10.27;4.10;;;;;;;12.51;100.00;95533.00;6217934;23;20173;-86
2023/03/30 04:41:32;;;;;;;9.37;3.17;;;;;;;12.44;100.00;95532.97;6216724;23;20280;-86
2023/03/30 04:43:59;;;;;;;15.13;3.90;;;;;;;12.41;100.00;95535.94;6215490;23;20326;-86
2023/03/30 04:46:26;;;;;;;11.47;3.77;;;;;;;12.35;100.00;95528.94;6217878;23;20567;-86
2023/03/30 04:48:52;;;;;;;10.20;3.90;;;;;;;12.40;100.00;95533.53;6218435;23;20751;-87
2023/03/30 04:51:19;;;;;;;9.93;3.40;;;;;;;12.38;100.00;95532.94;6219807;23;20194;-86
2023/03/30 04:53:45;;;;;;;12.27;3.77;;;;;;;12.33;100.00;95533.50;6219940;23;20177;-88
2023/03/30 04:56:13;;;;;;;13.47;4.00;;;;;;;12.31;100.00;95540.66;6219882;23;20180;-87
2023/03/30 04:58:39;;;;;;;11.03;3.70;;;;;;;12.36;100.00;95532.31;6217918;23;20185;-87
2023/03/30 05:01:06;;;;;;;13.10;4.17;;;;;;;12.47;100.00;95515.53;6218701;23;20198;-88
2023/03/30 05:03:32;;;;;;;12.60;3.90;;;;;;;12.49;100.00;95511.75;6218646;23;20177;-88
2023/03/30 05:05:59;;;;;;;11.23;4.00;;;;;;;12.53;100.00;95507.78;6219689;23;20488;-87
2023/03/30 05:08:25;;;;;;;11.40;3.70;;;;;;;12.54;100.00;95506.00;6216960;23;20177;-87
2023/03/30 05:10:52;;;;;;;11.30;3.97;;;;;;;12.54;100.00;95501.63;6216554;23;20193;-86
2023/03/30 05:13:19;;;;;;;10.93;3.30;;;;;;;12.49;100.00;95496.28;6218469;23;20876;-86
2023/03/30 05:15:52;;;;;;;9.50;3.23;;;;;;;12.53;100.00;95489.72;6218479;23;20523;-88
2023/03/30 05:18:19;;;;;;;14.20;3.53;;;;;;;12.49;100.00;95496.28;6218398;23;20161;-87
2023/03/30 05:20:45;;;;;;;9.47;3.83;;;;;;;12.50;100.00;95497.88;6220287;23;20225;-87
2023/03/30 05:23:12;;;;;;;12.73;3.40;;;;;;;12.53;100.00;95488.91;6218437;23;20178;-86
2023/03/30 05:25:38;;;;;;;9.10;4.07;;;;;;;12.54;100.00;95487.94;6219052;23;20177;-86
2023/03/30 05:28:05;;;;;;;12.70;4.13;;;;;;;12.51;100.00;95483.16;6219486;23;20203;-88
2023/03/30 05:30:32;;;;;;;10.17;4.13;;;;;;;12.51;100.00;95475.44;6219987;23;20296;-86
2023/03/30 05:32:59;;;;;;;7.70;3.60;;;;;;;12.49;100.00;95467.06;6219777;23;20177;-87
2023/03/30 05:35:25;;;;;;;12.87;3.53;;;;;;;12.46;100.00;95476.00;6219320;23;20177;-87
2023/03/30 05:37:53;;;;;;;11.27;3.20;;;;;;;12.45;100.00;95467.44;6216204;23;20236;-87
2023/03/30 05:40:19;;;;;;;14.60;4.00;;;;;;;12.51;100.00;95468.44;6221629;23;20274;-87
2023/03/30 05:42:48;;;;;;;12.30;3.50;;;;;;;12.53;100.00;95466.47;6221588;23;20185;-86
2023/03/30 05:45:14;;;;;;;12.60;4.03;;;;;;;12.55;100.00;95461.91;6215898;23;20260;-86
2023/03/30 05:47:42;;;;;;;11.73;3.60;;;;;;;12.50;100.00;95448.81;6217161;23;20509;-86
2023/03/30 05:50:10;;;;;;;14.60;4.97;;;;;;;12.36;100.00;95434.22;6214860;23;20226;-87
2023/03/30 05:52:36;;;;;;;12.63;3.77;;;;;;;12.32;100.00;95426.03;6215449;23;20185;-87
2023/03/30 05:55:03;;;;;;;11.93;3.80;;;;;;;12.33;100.00;95421.69;6217551;23;20177;-87
2023/03/30 05:57:29;;;;;;;9.80;3.77;;;;;;;12.31;100.00;95419.31;6218417;23;20178;-86
2023/03/30 05:59:56;;;;;;;10.13;4.10;;;;;;;12.33;100.00;95416.50;6217633;23;20177;-88
2023/03/30 06:02:23;;;;;;;8.50;3.33;;;;;;;12.37;100.00;95412.56;6216847;23;20177;-88
2023/03/30 06:04:51;;;;;;;11.40;3.37;;;;;;;12.37;100.00;95404.81;6217606;23;20531;-86
2023/03/30 06:07:19;;;;;;;9.37;3.70;;;;;;;12.39;100.00;95413.97;6218472;23;20225;-86
2023/03/30 06:09:46;;;;;;;15.73;4.13;;;;;;;12.41;100.00;95413.78;6219185;23;20181;-87
2023/03/30 06:12:12;;;;;;;10.77;3.77;;;;;;;12.30;100.00;95402.22;6218146;23;20243;-86
2023/03/30 06:14:38;;;;;;;12.77;4.77;;;;;;;12.36;100.00;95398.06;6220635;23;20177;-87
2023/03/30 06:17:05;;;;;;;12.63;4.30;;;;;;;12.33;100.00;95385.53;6219807;23;20220;-86
2023/03/30 06:19:34;;;;;;;11.93;4.33;;;;;;;12.39;100.00;95387.34;6219465;23;20184;-87
2023/03/30 06:22:02;;;;;;;15.30;4.10;;;;;;;12.39;100.00;95385.56;6219548;23;20270;-86
2023/03/30 06:24:28;;;;;;;12.47;4.20;;;;;;;12.39;100.00;95385.56;6216455;23;20242;-86
2023/03/30 06:26:55;;;;;;;14.77;4.53;;;;;;;12.34;100.00;95371.63;6214823;23;20688;-86
2023/03/30 06:29:22;;;;;;;6.20;3.00;;;;;;;12.32;100.00;95361.50;6214386;23;20174;-86
2023/03/30 06:31:50;;;;;;;13.10;3.93;;;;;;;12.31;100.00;95362.53;6212492;23;20688;-86
2023/03/30 06:34:16;;;;;;;10.53;3.93;;;;;;;12.29;100.00;95361.91;6212796;23;20521;-86
2023/03/30 06:36:42;;;;;;;13.87;3.90;;;;;;;12.21;100.00;95351.75;6212494;23;20474;-87
2023/03/30 06:39:11;;;;;;;10.87;3.40;;;;;;;12.22;100.00;95361.06;6213028;23;20177;-86
2023/03/30 06:41:37;;;;;;;11.87;4.00;;;;;;;12.21;100.00;95343.19;6211992;23;20204;-86
2023/03/30 06:44:03;;;;;;;8.27;3.60;;;;;;;12.30;100.00;95335.13;6213032;23;20158;-86
2023/03/30 06:46:30;;;;;;;10.60;3.70;;;;;;;12.35;100.00;95331.94;6212600;23;20188;-86
2023/03/30 06:48:56;;;;;;;10.50;3.17;;;;;;;12.32;100.00;95324.56;6212501;23;20178;-86
2023/03/30 06:51:23;;;;;;;9.17;3.53;;;;;;;12.32;100.00;95325.34;6213144;23;20197;-86
2023/03/30 06:53:49;;;;;;;10.40;3.63;;;;;;;12.36;100.00;95323.19;6212842;23;20228;-86
2023/03/30 06:56:17;;;;;;;8.33;3.20;;;;;;;12.31;100.00;95307.50;6219476;23;20177;-87
2023/03/30 06:58:44;;;;;;;9.17;3.10;;;;;;;12.22;100.00;95303.50;6217844;23;20173;-86
2023/03/30 07:01:11;;;;;;;8.07;3.30;;;;;;;12.28;100.00;95308.69;6216165;23;20685;-86
2023/03/30 07:03:38;;;;;;;10.53;3.30;;;;;;;12.31;100.00;95300.56;6216574;23;20545;-86
2023/03/30 07:06:06;;;;;;;9.50;3.40;;;;;;;12.33;100.00;95308.09;6215515;23;20177;-85
2023/03/30 07:08:34;;;;;;;9.03;3.07;;;;;;;12.43;100.00;95313.69;6214845;23;20676;-86
2023/03/30 07:11:01;;;;;;;10.93;3.97;;;;;;;12.39;100.00;95289.25;6213155;23;20707;-87
2023/03/30 07:13:29;;;;;;;8.10;2.93;;;;;;;12.36;100.00;95292.22;6217949;23;20173;-87
2023/03/30 07:15:56;;;;;;;8.93;2.83;;;;;;;12.47;100.00;95290.88;6218000;23;20352;-86
2023/03/30 07:18:26;;;;;;;9.80;2.83;;;;;;;12.56;100.00;95282.72;6217675;23;20228;-86
2023/03/30 07:20:52;;;;;;;10.70;3.00;;;;;;;12.69;100.00;95284.56;6217177;23;20202;-88
2023/03/30 07:23:20;;;;;;;8.23;2.87;;;;;;;12.73;100.00;95289.13;6217047;23;20181;-86
2023/03/30 07:25:47;;;;;;;5.13;2.60;;;;;;;12.93;100.00;95289.13;6217380;23;20170;-86
2023/03/30 07:28:13;;;;;;;9.00;2.70;;;;;;;13.10;100.00;95274.03;6217689;23;20197;-87
2023/03/30 07:30:41;;;;;;;10.77;3.20;;;;;;;13.23;100.00;95283.63;6217539;23;20202;-87
2023/03/30 07:33:08;;;;;;;8.70;3.30;;;;;;;13.10;100.00;95279.19;6217269;23;20253;-86
2023/03/30 07:35:34;;;;;;;11.33;3.10;;;;;;;13.11;100.00;95283.38;6218486;23;20181;-87
2023/03/30 07:38:01;;;;;;;12.00;2.93;;;;;;;13.06;100.00;95280.59;6218699;23;20178;-86
2023/03/30 07:40:27;;;;;;;8.90;3.00;;;;;;;13.09;100.00;95283.56;6213001;23;20197;-86
2023/03/30 07:42:54;;;;;;;10.37;2.80;;;;;;;13.06;100.00;95288.38;6213447;23;20189;-87
2023/03/30 07:45:20;;;;;;;6.37;2.90;;;;;;;12.98;100.00;95298.88;6214616;23;20180;-86
2023/03/30 07:47:48;;;;;;;10.87;3.03;;;;;;;12.93;100.00;95299.47;6214297;23;20197;-87
2023/03/30 07:50:14;;;;;;;10.20;3.70;;;;;;;13.00;100.00;95302.06;6215196;23;20276;-86
2023/03/30 07:52:41;;;;;;;11.83;3.40;;;;;;;12.98;100.00;95281.59;6214212;23;20246;-86
2023/03/30 07:55:08;;;;;;;10.00;2.90;;;;;;;12.91;100.00;95283.38;6214046;23;20178;-86
2023/03/30 07:57:34;;;;;;;7.50;2.90;;;;;;;12.98;100.00;95276.41;6213746;23;20173;-86
2023/03/30 08:00:01;;;;;;;8.27;2.90;;;;;;;12.91;100.00;95264.47;6214400;23;20211;-87
2023/03/30 08:02:27;;;;;;;10.13;3.20;;;;;;;12.92;100.00;95261.69;6215518;23;20528;-85
2023/03/30 08:04:55;;;;;;;10.03;3.10;;;;;;;12.85;100.00;95254.97;6215889;23;20181;-86
2023/03/30 08:07:22;;;;;;;9.40;3.03;;;;;;;12.90;100.00;95270.63;6217204;23;20197;-85
2023/03/30 08:09:48;;;;;;;8.37;3.83;;;;;;;12.96;100.00;95247.41;6217166;23;20231;-86
2023/03/30 08:12:14;;;;;;;8.30;2.73;;;;;;;12.88;100.00;95226.16;6215959;23;20260;-86
2023/03/30 08:14:41;;;;;;;12.27;3.10;;;;;;;12.94;100.00;95222.75;6214908;23;20193;-86
2023/03/30 08:17:07;;;;;;;9.00;3.50;;;;;;;13.02;100.00;95243.22;6214111;23;20188;-86
2023/03/30 08:19:34;;;;;;;9.27;3.30;;;;;;;13.04;100.00;95233.50;6215445;23;20177;-86
2023/03/30 08:22:02;;;;;;;11.33;3.40;;;;;;;13.20;100.00;95222.75;6216770;23;20194;-86
2023/03/30 08:24:28;;;;;;;10.90;3.27;;;;;;;13.26;100.00;95226.34;6216499;23;20180;-86
2023/03/30 08:26:55;;;;;;;10.63;3.43;;;;;;;13.32;100.00;95225.50;6217974;23;20173;-87
2023/03/30 08:29:21;;;;;;;10.40;4.50;;;;;;;13.48;100.00;95227.66;6217366;23;20178;-87
2023/03/30 08:31:47;;;;;;;9.70;3.07;;;;;;;13.58;100.00;95224.66;6217579;23;20205;-86
2023/03/30 08:34:14;;;;;;;9.73;3.50;;;;;;;13.76;100.00;95227.38;6218479;23;20212;-86
2023/03/30 08:36:40;;;;;;;10.93;3.50;;;;;;;13.91;100.00;95227.13;6218137;23;20406;-86
2023/03/30 08:39:09;;;;;;;8.43;2.77;;;;;;;13.95;100.00;95225.72;6219630;23;20548;-87
2023/03/30 08:42:01;;;;;;;10.70;3.10;;;;;;;13.95;100.00;95223.94;6217712;23;20204;-87
2023/03/30 08:44:33;;;;;;;7.73;3.13;;;;;;;13.74;100.00;95232.78;6217947;23;20209;-86
2023/03/30 08:47:03;;;;;;;10.77;3.43;;;;;;;13.69;100.00;95227.41;6218115;23;20162;-86
2023/03/30 08:49:33;;;;;;;11.57;3.27;;;;;;;13.61;100.00;95225.06;6218638;23;20177;-86
2023/03/30 08:52:03;;;;;;;7.73;2.87;;;;;;;13.69;100.00;95232.56;6218012;23;20197;-86
2023/03/30 08:54:32;;;;;;;8.47;3.10;;;;;;;13.79;100.00;95220.03;6218340;23;20174;-86
2023/03/30 08:57:06;;;;;;;8.07;3.10;;;;;;;13.94;100.00;95226.72;6219246;23;20181;-87
2023/03/30 08:59:42;;;;;;;12.18;3.28;;;;;;;13.98;100.00;95220.94;6219041;23;20212;-86
2023/03/30 09:02:16;;;;;;;6.83;2.93;;;;;;;14.05;100.00;95211.31;6216855;23;20193;-86
2023/03/30 09:05:00;;;;;;;7.35;2.65;;;;;;;14.06;100.00;95199.19;6218104;23;20180;-87
2023/03/30 09:07:31;;;;;;;5.97;2.97;;;;;;;14.06;100.00;95210.31;6219058;23;20181;-86
2023/03/30 09:10:00;;;;;;;7.55;3.00;;;;;;;14.28;99.41;95220.38;6218292;23;20216;-86
2023/03/30 09:12:38;;;;;;;10.10;3.50;;;;;;;14.36;98.48;95220.94;6218900;23;20208;-86
2023/03/30 09:15:12;;;;;;;13.25;3.60;;;;;;;14.38;97.11;95220.72;6220136;23;20169;-86
2023/03/30 09:17:43;;;;;;;7.40;2.72;;;;;;;14.41;96.19;95215.97;6219184;23;20157;-87
2023/03/30 09:20:15;;;;;;;9.38;2.90;;;;;;;14.50;95.05;95222.47;6217171;23;20693;-85
2023/03/30 09:22:47;;;;;;;9.55;3.45;;;;;;;14.66;94.68;95226.34;6218453;23;20197;-87
2023/03/30 09:25:18;;;;;;;7.78;3.10;;;;;;;14.77;91.95;95233.44;6219890;23;20162;-87
2023/03/30 09:27:56;;;;;;;7.78;2.67;;;;;;;15.05;90.53;95237.41;6218655;23;20182;-86
2023/03/30 09:30:30;;;;;;;9.43;2.75;;;;;;;15.42;88.77;95233.06;6219583;23;20204;-86
2023/03/30 09:33:00;;;;;;;8.48;3.03;;;;;;;15.75;84.68;95235.38;6219745;23;20605;-86
2023/03/30 09:35:36;;;;;;;9.65;2.60;;;;;;;16.24;83.55;95232.56;6220568;23;20184;-87
2023/03/30 09:38:03;;;;;;;6.22;2.50;;;;;;;16.37;82.25;95230.78;6219303;23;20216;-87
2023/03/30 09:40:44;;;;;;;7.93;2.65;;;;;;;16.36;80.90;95226.59;6220036;23;20197;-87
2023/03/30 09:43:16;;;;;;;7.93;2.45;;;;;;;16.35;79.11;95232.84;6217600;23;20181;-87
2023/03/30 09:45:44;;;;;;;5.68;2.25;;;;;;;16.35;77.82;95243.22;6219057;23;20162;-87
2023/03/30 09:48:11;;;;;;;7.10;2.72;;;;;;;16.39;77.15;95231.34;6217573;23;20201;-86
2023/03/30 09:50:40;;;;;;;7.18;2.45;;;;;;;16.62;77.47;95228.84;6219039;23;20204;-86
2023/03/30 09:53:18;;;;;;;9.55;2.88;;;;;;;16.73;77.78;95233.31;6218931;23;20187;-87
2023/03/30 09:55:57;;;;;;;9.50;2.60;;;;;;;16.62;75.77;95241.03;6220606;23;20158;-86
2023/03/30 09:58:27;;;;;;;8.25;2.50;;;;;;;16.51;71.44;95242.59;6218109;23;20161;-86
2023/03/30 10:01:03;;;;;;;13.98;3.67;;;;;;;16.37;69.78;95247.16;6217518;23;20708;-86
2023/03/30 10:03:29;;;;;;;10.43;2.67;;;;;;;16.41;71.40;95239.72;6219482;23;20168;-87
2023/03/30 10:06:07;;;;;;;13.65;2.78;;;;;;;16.41;71.82;95244.91;6218566;23;20177;-86
2023/03/30 10:08:54;;;;;;;12.07;2.95;;;;;;;16.70;70.92;95238.94;6219202;23;20495;-88
2023/03/30 10:11:45;;;;;;;10.43;3.13;;;;;;;17.00;70.03;95232.88;6219951;23;20216;-87
2023/03/30 10:14:53;;;;;;;7.85;2.55;;;;;;;17.20;69.86;95228.16;6220038;23;20229;-87
2023/03/30 10:17:23;;;;;;;9.38;2.97;;;;;;;17.45;69.56;95236.53;6213590;23;20184;-87
2023/03/30 10:20:15;;;;;;;7.60;2.63;;;;;;;17.39;66.81;95237.41;6219842;23;20169;-88
2023/03/30 10:23:05;;;;;;;9.30;2.60;;;;;;;17.22;68.06;95232.13;6189187;23;20178;-86
2023/03/30 10:25:33;;;;;;;17.40;3.47;;;;;;;17.19;66.92;95231.75;6219636;23;20528;-87
2023/03/30 10:28:15;;;;;;;;;;;;;;;;;;;;;
2023/03/30 10:30:49;;;;;;;11.98;2.92;;;;;;;17.06;67.78;95240.59;6219048;23;20232;-88
2023/03/30 10:33:16;;;;;;;7.55;2.55;;;;;;;16.86;67.85;95246.09;6219470;23;20586;-86
2023/03/30 10:35:43;;;;;;;8.82;2.85;;;;;;;16.71;67.93;95248.34;6221320;23;20193;-86
2023/03/30 10:38:14;;;;;;;13.27;3.08;;;;;;;16.55;67.71;95259.31;6219579;23;20454;-88
2023/03/30 10:40:43;;;;;;;8.88;2.90;;;;;;;16.38;66.74;95266.16;6220771;23;20200;-87
2023/03/30 10:43:17;;;;;;;12.20;3.60;;;;;;;16.24;67.56;95270.72;6220371;23;20237;-86
2023/03/30 10:45:47;;;;;;;8.73;2.92;;;;;;;16.14;68.25;95265.28;6220102;23;20181;-87
2023/03/30 10:48:29;;;;;;;12.57;3.15;;;;;;;16.07;69.82;95278.31;6221440;23;20182;-88
2023/03/30 10:51:05;;;;;;;7.15;2.70;;;;;;;16.00;70.98;95290.59;6218617;23;20703;-86
2023/03/30 10:53:43;;;;;;;13.30;6.38;;;;;;;15.96;72.25;95301.63;6218296;23;20192;-87
2023/03/30 10:56:18;;;;;;;9.10;4.28;;;;;;;15.86;74.46;95305.53;6219099;23;20170;-87
2023/03/30 10:59:04;;;;;;;7.40;2.95;;;;;;;15.75;74.22;95308.03;6218782;23;20842;-88
2023/03/30 11:01:41;;;;;;;8.20;3.15;;;;;;;15.67;75.71;95309.09;6216875;23;20193;-86
2023/03/30 11:04:14;;;;;;;10.63;2.90;;;;;;;15.56;74.42;95320.22;6219604;23;20161;-88
2023/03/30 11:06:41;;;;;;;7.70;2.83;;;;;;;15.52;75.68;95327.59;6218885;23;20166;-87
2023/03/30 11:09:14;;;;;;;7.18;2.63;;;;;;;15.60;76.61;95339.50;6216880;23;20221;-86
2023/03/30 11:11:48;;;;;;;14.38;3.55;;;;;;;15.52;76.79;95334.56;6217058;23;20197;-86
2023/03/30 11:14:22;;;;;;;8.75;2.83;;;;;;;15.53;77.12;95341.34;6216802;23;20602;-87
2023/03/30 11:16:53;;;;;;;10.40;2.83;;;;;;;15.46;77.61;95351.00;6218751;23;20167;-88
2023/03/30 11:19:25;;;;;;;7.72;2.72;;;;;;;15.32;77.17;95352.91;6217811;23;20249;-86
2023/03/30 11:21:58;;;;;;;8.65;3.42;;;;;;;15.25;79.04;95356.53;6219198;23;20836;-87
2023/03/30 11:24:27;;;;;;;8.95;3.20;;;;;;;15.11;80.20;95368.81;6218731;23;20183;-87
2023/03/30 11:26:59;;;;;;;6.68;2.67;;;;;;;14.98;82.15;95369.69;6217835;23;20235;-88
2023/03/30 11:29:36;;;;;;;6.60;3.10;;;;;;;14.86;83.72;95384.31;6218397;23;20189;-88
2023/03/30 11:32:16;;;;;;;10.70;3.03;;;;;;;14.76;85.23;95386.56;6219599;23;20291;-87
2023/03/30 11:34:53;;;;;;;5.70;2.45;;;;;;;14.81;85.73;95390.13;6220675;23;20216;-86
2023/03/30 11:37:28;;;;;;;7.00;2.80;;;;;;;14.65;87.36;95390.59;6217911;23;20521;-86
2023/03/30 11:40:00;;;;;;;4.82;2.53;;;;;;;14.49;84.86;95396.22;6219629;23;20495;-86
2023/03/30 11:42:31;;;;;;;6.28;2.35;;;;;;;14.35;83.24;95402.44;6218678;23;20193;-86
2023/03/30 11:45:03;;;;;;;6.45;3.00;;;;;;;14.27;82.58;95400.06;6221307;23;20217;-86